Terminal Aerodrome Forecast
Issued by NWS Cleveland, OH

Home | Current Version | Previous Version | Text Only | Print | Product List | Glossary On
Versions: 1 2 3 4 5 6 7 8 9 10 11 12 13 14 15 16
000
FTUS41 KCLE 272332
TAFTOL
TAF
KTOL 272332Z 2800/2824 06012KT P6SM OVC250
     FM280500 06010KT P6SM OVC080
     FM280700 05010G15KT P6SM VCSH OVC035
     FM281400 06012KT P6SM -SHRA OVC015
     FM281700 06010G20KT P6SM OVC015=

USA.gov is the U.S. government's official web portal to all federal, state and local government web resources and services.